This is the latest recevied weather packets stored in our database for station/object N4BBA. If no packets are shown the sender has not sent any weather packets the latest 10 day(s).
| Time | Temp. | Humidity | Pressure | Rain* | Wind** | Luminosity | Snow |
|---|---|---|---|---|---|---|---|
| 1778024062 | 23.89° C | 54% | 1013.8 hPa | 0 mm | - | 26 W/m² | - |
| 1778023759 | 23.89° C | 53% | 1013.7 hPa | 0 mm | - | 34 W/m² | - |
| 1778023457 | 23.89° C | 53% | 1013.8 hPa | 0 mm | - | 41 W/m² | - |
| 1778023153 | 24.44° C | 52% | 1013.8 hPa | 0 mm | - | 48 W/m² | - |
| 1778022851 | 24.44° C | 52% | 1013.9 hPa | 0 mm | - | 55 W/m² | - |
| 1778022549 | 25° C | 51% | 1013.7 hPa | 0 mm | - | 56 W/m² | - |
| 1778022246 | 25° C | 50% | 1013.5 hPa | 0 mm | - | 80 W/m² | - |
| 1778021942 | 25° C | 50% | 1013.7 hPa | 0 mm | - | 90 W/m² | - |
| 1778021640 | 25.56° C | 49% | 1013.6 hPa | 0 mm | - | 107 W/m² | - |
| 1778021334 | 25.56° C | 49% | 1013.7 hPa | 0 mm | - | 135 W/m² | - |
| 1778021032 | 25.56° C | 49% | 1013.8 hPa | 0 mm | - | 162 W/m² | - |
| 1778020729 | 25.56° C | 49% | 1013.8 hPa | 0 mm | - | 182 W/m² | - |
| 1778020426 | 25.56° C | 50% | 1014 hPa | 0 mm | - | 195 W/m² | - |
| 1778020122 | 25° C | 50% | 1014.2 hPa | 0 mm | - | 156 W/m² | - |
| 1778019818 | 25.56° C | 49% | 1014.1 hPa | 0 mm | - | 92 W/m² | - |
| 1778019516 | 26.11° C | 48% | 1014 hPa | 0 mm | - | 115 W/m² | - |
| 1778019212 | 26.11° C | 48% | 1014 hPa | 0 mm | - | 225 W/m² | - |
| 1778018909 | 26.11° C | 47% | 1014.1 hPa | 0 mm | - | 138 W/m² | - |
| 1778018606 | 26.11° C | 47% | 1014 hPa | 0 mm | - | 215 W/m² | - |
| 1778018304 | 25.56° C | 49% | 1014.2 hPa | 0 mm | - | 260 W/m² | - |
| 1778018002 | 25.56° C | 49% | 1014.1 hPa | 0 mm | - | 101 W/m² | - |
| 1778017700 | 26.11° C | 48% | 1014 hPa | 0 mm | - | 138 W/m² | - |
| 1778017397 | 26.67° C | 46% | 1014 hPa | 0 mm | - | 139 W/m² | - |
| 1778017094 | 27.22° C | 46% | 1013.9 hPa | 0 mm | - | 139 W/m² | - |
| 1778016792 | 26.67° C | 46% | 1013.8 hPa | 0 mm | - | 346 W/m² | - |
* Rain latest hour (hover to see other rain measurements)
** Current wind speed in m/s (hover to see current wind gust speed)